sensor_id;sensor_type;location;lat;lon;timestamp;P1;durP1;ratioP1;P2;durP2;ratioP2
21827;SDS011;11076;47.942;11.804;2023-05-16T00:00:28;3.45;;;2.55;;
21827;SDS011;11076;47.942;11.804;2023-05-16T00:05:36;2.42;;;2.20;;
21827;SDS011;11076;47.942;11.804;2023-05-16T00:10:38;2.53;;;2.28;;
21827;SDS011;11076;47.942;11.804;2023-05-16T00:15:41;2.40;;;2.20;;
21827;SDS011;11076;47.942;11.804;2023-05-16T00:20:45;2.65;;;2.45;;
21827;SDS011;11076;47.942;11.804;2023-05-16T00:25:47;2.47;;;2.28;;
21827;SDS011;11076;47.942;11.804;2023-05-16T00:30:50;5.43;;;2.42;;
21827;SDS011;11076;47.942;11.804;2023-05-16T00:35:52;4.40;;;2.50;;
21827;SDS011;11076;47.942;11.804;2023-05-16T00:40:54;4.30;;;2.28;;
21827;SDS011;11076;47.942;11.804;2023-05-16T00:45:57;8.77;;;2.28;;
21827;SDS011;11076;47.942;11.804;2023-05-16T00:51:01;2.47;;;2.28;;
21827;SDS011;11076;47.942;11.804;2023-05-16T00:56:04;7.03;;;2.88;;
21827;SDS011;11076;47.942;11.804;2023-05-16T01:01:07;2.90;;;2.60;;
21827;SDS011;11076;47.942;11.804;2023-05-16T01:06:10;3.85;;;2.70;;
21827;SDS011;11076;47.942;11.804;2023-05-16T01:16:45;3.08;;;2.72;;
21827;SDS011;11076;47.942;11.804;2023-05-16T01:26:58;2.92;;;2.67;;
21827;SDS011;11076;47.942;11.804;2023-05-16T01:32:01;3.30;;;2.97;;
21827;SDS011;11076;47.942;11.804;2023-05-16T01:37:18;3.13;;;2.83;;
21827;SDS011;11076;47.942;11.804;2023-05-16T01:42:26;4.32;;;2.95;;
21827;SDS011;11076;47.942;11.804;2023-05-16T01:47:34;6.93;;;3.00;;
21827;SDS011;11076;47.942;11.804;2023-05-16T01:52:44;8.18;;;3.00;;
21827;SDS011;11076;47.942;11.804;2023-05-16T01:57:47;3.13;;;2.70;;
21827;SDS011;11076;47.942;11.804;2023-05-16T02:02:51;5.53;;;2.70;;
21827;SDS011;11076;47.942;11.804;2023-05-16T02:07:53;3.55;;;3.00;;
21827;SDS011;11076;47.942;11.804;2023-05-16T02:12:56;4.82;;;3.38;;
21827;SDS011;11076;47.942;11.804;2023-05-16T02:17:58;4.97;;;3.70;;
21827;SDS011;11076;47.942;11.804;2023-05-16T02:23:01;4.30;;;3.90;;
21827;SDS011;11076;47.942;11.804;2023-05-16T02:28:06;3.55;;;3.25;;
21827;SDS011;11076;47.942;11.804;2023-05-16T02:33:08;4.43;;;3.58;;
21827;SDS011;11076;47.942;11.804;2023-05-16T02:38:12;5.45;;;3.20;;
21827;SDS011;11076;47.942;11.804;2023-05-16T02:43:18;3.47;;;3.17;;
21827;SDS011;11076;47.942;11.804;2023-05-16T02:48:20;3.50;;;3.20;;
21827;SDS011;11076;47.942;11.804;2023-05-16T02:53:23;4.10;;;3.72;;
21827;SDS011;11076;47.942;11.804;2023-05-16T02:58:25;3.05;;;2.85;;
21827;SDS011;11076;47.942;11.804;2023-05-16T03:03:28;3.70;;;3.40;;
21827;SDS011;11076;47.942;11.804;2023-05-16T03:08:30;8.07;;;3.60;;
21827;SDS011;11076;47.942;11.804;2023-05-16T03:13:33;5.05;;;3.47;;
21827;SDS011;11076;47.942;11.804;2023-05-16T03:18:35;4.57;;;3.50;;
21827;SDS011;11076;47.942;11.804;2023-05-16T03:23:38;4.10;;;3.70;;
21827;SDS011;11076;47.942;11.804;2023-05-16T03:28:40;5.00;;;3.97;;
21827;SDS011;11076;47.942;11.804;2023-05-16T03:33:42;4.53;;;4.10;;
21827;SDS011;11076;47.942;11.804;2023-05-16T03:38:45;4.50;;;4.10;;
21827;SDS011;11076;47.942;11.804;2023-05-16T03:43:47;4.70;;;4.07;;
21827;SDS011;11076;47.942;11.804;2023-05-16T03:48:49;5.25;;;4.03;;
21827;SDS011;11076;47.942;11.804;2023-05-16T03:53:52;4.75;;;4.25;;
21827;SDS011;11076;47.942;11.804;2023-05-16T03:58:55;7.97;;;4.82;;
21827;SDS011;11076;47.942;11.804;2023-05-16T04:03:57;7.60;;;4.57;;
21827;SDS011;11076;47.942;11.804;2023-05-16T04:08:59;5.70;;;5.10;;
21827;SDS011;11076;47.942;11.804;2023-05-16T04:14:02;5.70;;;4.90;;
21827;SDS011;11076;47.942;11.804;2023-05-16T04:19:04;7.38;;;5.13;;
21827;SDS011;11076;47.942;11.804;2023-05-16T04:24:06;6.03;;;4.75;;
21827;SDS011;11076;47.942;11.804;2023-05-16T04:29:09;7.22;;;5.55;;
21827;SDS011;11076;47.942;11.804;2023-05-16T04:34:12;5.18;;;4.63;;
21827;SDS011;11076;47.942;11.804;2023-05-16T04:39:16;5.65;;;5.07;;
21827;SDS011;11076;47.942;11.804;2023-05-16T04:44:19;5.88;;;4.97;;
21827;SDS011;11076;47.942;11.804;2023-05-16T04:49:22;7.45;;;5.38;;
21827;SDS011;11076;47.942;11.804;2023-05-16T04:54:24;6.43;;;5.55;;
21827;SDS011;11076;47.942;11.804;2023-05-16T04:59:27;10.80;;;5.60;;
21827;SDS011;11076;47.942;11.804;2023-05-16T05:04:29;7.68;;;6.40;;
21827;SDS011;11076;47.942;11.804;2023-05-16T05:09:32;9.20;;;6.30;;
21827;SDS011;11076;47.942;11.804;2023-05-16T05:14:34;7.13;;;5.53;;
21827;SDS011;11076;47.942;11.804;2023-05-16T05:19:37;7.43;;;5.40;;
21827;SDS011;11076;47.942;11.804;2023-05-16T05:24:39;9.23;;;5.93;;
21827;SDS011;11076;47.942;11.804;2023-05-16T05:29:42;7.88;;;6.13;;
21827;SDS011;11076;47.942;11.804;2023-05-16T05:34:44;7.65;;;5.85;;
21827;SDS011;11076;47.942;11.804;2023-05-16T05:39:47;7.78;;;6.25;;
21827;SDS011;11076;47.942;11.804;2023-05-16T05:44:49;10.93;;;5.88;;
21827;SDS011;11076;47.942;11.804;2023-05-16T05:49:52;8.65;;;6.25;;
21827;SDS011;11076;47.942;11.804;2023-05-16T05:54:54;9.50;;;7.00;;
21827;SDS011;11076;47.942;11.804;2023-05-16T05:59:57;8.27;;;6.22;;
21827;SDS011;11076;47.942;11.804;2023-05-16T06:04:59;7.90;;;6.30;;
21827;SDS011;11076;47.942;11.804;2023-05-16T06:10:01;10.68;;;6.28;;
21827;SDS011;11076;47.942;11.804;2023-05-16T06:15:06;11.80;;;6.53;;
21827;SDS011;11076;47.942;11.804;2023-05-16T06:20:09;13.77;;;6.70;;
21827;SDS011;11076;47.942;11.804;2023-05-16T06:25:12;7.72;;;4.90;;
21827;SDS011;11076;47.942;11.804;2023-05-16T06:30:14;11.05;;;6.88;;
21827;SDS011;11076;47.942;11.804;2023-05-16T06:35:17;9.15;;;7.57;;
21827;SDS011;11076;47.942;11.804;2023-05-16T06:40:19;8.75;;;7.40;;
21827;SDS011;11076;47.942;11.804;2023-05-16T06:45:22;8.50;;;6.43;;
21827;SDS011;11076;47.942;11.804;2023-05-16T06:50:24;7.50;;;5.78;;
21827;SDS011;11076;47.942;11.804;2023-05-16T06:55:26;11.25;;;8.63;;
21827;SDS011;11076;47.942;11.804;2023-05-16T07:00:29;12.00;;;8.07;;
21827;SDS011;11076;47.942;11.804;2023-05-16T07:05:31;10.95;;;8.75;;
21827;SDS011;11076;47.942;11.804;2023-05-16T07:10:34;12.48;;;9.00;;
21827;SDS011;11076;47.942;11.804;2023-05-16T07:15:37;11.35;;;7.80;;
21827;SDS011;11076;47.942;11.804;2023-05-16T07:20:39;11.07;;;8.73;;
21827;SDS011;11076;47.942;11.804;2023-05-16T07:25:42;12.38;;;8.70;;
21827;SDS011;11076;47.942;11.804;2023-05-16T07:30:44;13.95;;;9.65;;
21827;SDS011;11076;47.942;11.804;2023-05-16T07:35:47;12.18;;;9.75;;
21827;SDS011;11076;47.942;11.804;2023-05-16T07:40:51;13.30;;;8.98;;
21827;SDS011;11076;47.942;11.804;2023-05-16T07:45:53;10.55;;;8.85;;
21827;SDS011;11076;47.942;11.804;2023-05-16T07:50:56;14.73;;;9.20;;
21827;SDS011;11076;47.942;11.804;2023-05-16T07:55:58;11.48;;;9.45;;
21827;SDS011;11076;47.942;11.804;2023-05-16T08:01:01;10.65;;;8.55;;
21827;SDS011;11076;47.942;11.804;2023-05-16T08:06:04;13.15;;;9.95;;
21827;SDS011;11076;47.942;11.804;2023-05-16T08:11:06;13.70;;;9.50;;
21827;SDS011;11076;47.942;11.804;2023-05-16T08:16:09;9.07;;;7.30;;
21827;SDS011;11076;47.942;11.804;2023-05-16T08:21:12;13.38;;;9.75;;
21827;SDS011;11076;47.942;11.804;2023-05-16T08:26:15;12.60;;;9.55;;
21827;SDS011;11076;47.942;11.804;2023-05-16T08:31:19;13.07;;;10.48;;
21827;SDS011;11076;47.942;11.804;2023-05-16T08:36:22;14.20;;;10.30;;
21827;SDS011;11076;47.942;11.804;2023-05-16T08:41:24;12.25;;;9.52;;
21827;SDS011;11076;47.942;11.804;2023-05-16T08:46:27;14.55;;;10.77;;
21827;SDS011;11076;47.942;11.804;2023-05-16T08:51:31;13.80;;;10.32;;
21827;SDS011;11076;47.942;11.804;2023-05-16T08:56:37;10.10;;;8.68;;
21827;SDS011;11076;47.942;11.804;2023-05-16T09:01:40;12.35;;;9.85;;
21827;SDS011;11076;47.942;11.804;2023-05-16T09:06:43;8.15;;;7.05;;
21827;SDS011;11076;47.942;11.804;2023-05-16T09:11:46;11.38;;;7.82;;
21827;SDS011;11076;47.942;11.804;2023-05-16T09:17:22;11.45;;;9.95;;
21827;SDS011;11076;47.942;11.804;2023-05-16T09:22:19;10.52;;;9.43;;
21827;SDS011;11076;47.942;11.804;2023-05-16T09:27:21;13.57;;;10.50;;
21827;SDS011;11076;47.942;11.804;2023-05-16T09:32:24;19.00;;;9.90;;
21827;SDS011;11076;47.942;11.804;2023-05-16T09:37:27;15.40;;;10.27;;
21827;SDS011;11076;47.942;11.804;2023-05-16T09:42:29;11.32;;;9.20;;
21827;SDS011;11076;47.942;11.804;2023-05-16T09:47:32;21.00;;;10.88;;
21827;SDS011;11076;47.942;11.804;2023-05-16T09:52:36;12.27;;;9.50;;
21827;SDS011;11076;47.942;11.804;2023-05-16T09:57:39;11.45;;;10.25;;
21827;SDS011;11076;47.942;11.804;2023-05-16T10:02:42;12.95;;;10.80;;
21827;SDS011;11076;47.942;11.804;2023-05-16T10:07:45;15.60;;;10.68;;
21827;SDS011;11076;47.942;11.804;2023-05-16T10:12:48;12.25;;;10.20;;
21827;SDS011;11076;47.942;11.804;2023-05-16T10:17:51;14.70;;;10.93;;
21827;SDS011;11076;47.942;11.804;2023-05-16T10:22:57;18.60;;;11.57;;
21827;SDS011;11076;47.942;11.804;2023-05-16T10:28:01;14.70;;;11.82;;
21827;SDS011;11076;47.942;11.804;2023-05-16T10:33:05;15.27;;;10.95;;
21827;SDS011;11076;47.942;11.804;2023-05-16T10:38:08;15.45;;;11.07;;
21827;SDS011;11076;47.942;11.804;2023-05-16T10:43:21;18.23;;;11.18;;
21827;SDS011;11076;47.942;11.804;2023-05-16T10:53:50;19.65;;;11.77;;
21827;SDS011;11076;47.942;11.804;2023-05-16T10:58:53;17.30;;;12.70;;
21827;SDS011;11076;47.942;11.804;2023-05-16T11:14:21;15.85;;;13.98;;
21827;SDS011;11076;47.942;11.804;2023-05-16T11:19:28;21.67;;;16.33;;
21827;SDS011;11076;47.942;11.804;2023-05-16T11:24:35;16.85;;;12.85;;
21827;SDS011;11076;47.942;11.804;2023-05-16T11:29:50;17.58;;;12.98;;
21827;SDS011;11076;47.942;11.804;2023-05-16T11:34:53;17.15;;;13.55;;
21827;SDS011;11076;47.942;11.804;2023-05-16T11:39:59;16.98;;;14.50;;
21827;SDS011;11076;47.942;11.804;2023-05-16T11:45:14;16.00;;;12.45;;
21827;SDS011;11076;47.942;11.804;2023-05-16T11:50:23;17.83;;;14.40;;
21827;SDS011;11076;47.942;11.804;2023-05-16T11:55:28;21.05;;;15.77;;
21827;SDS011;11076;47.942;11.804;2023-05-16T12:00:48;20.95;;;15.70;;
21827;SDS011;11076;47.942;11.804;2023-05-16T12:05:52;19.98;;;14.98;;
21827;SDS011;11076;47.942;11.804;2023-05-16T12:10:56;21.65;;;16.20;;
21827;SDS011;11076;47.942;11.804;2023-05-16T12:15:59;22.33;;;15.60;;
21827;SDS011;11076;47.942;11.804;2023-05-16T12:21:02;22.30;;;20.00;;
21827;SDS011;11076;47.942;11.804;2023-05-16T12:26:04;19.33;;;16.88;;
21827;SDS011;11076;47.942;11.804;2023-05-16T12:31:17;21.38;;;16.98;;
21827;SDS011;11076;47.942;11.804;2023-05-16T12:36:31;17.75;;;15.25;;
21827;SDS011;11076;47.942;11.804;2023-05-16T12:41:38;18.30;;;14.70;;
21827;SDS011;11076;47.942;11.804;2023-05-16T12:46:46;14.43;;;12.98;;
21827;SDS011;11076;47.942;11.804;2023-05-16T12:51:51;15.07;;;11.63;;
21827;SDS011;11076;47.942;11.804;2023-05-16T12:56:55;13.63;;;11.05;;
21827;SDS011;11076;47.942;11.804;2023-05-16T13:01:58;12.25;;;10.88;;
21827;SDS011;11076;47.942;11.804;2023-05-16T13:07:00;11.93;;;10.35;;
21827;SDS011;11076;47.942;11.804;2023-05-16T13:12:03;11.27;;;10.13;;
21827;SDS011;11076;47.942;11.804;2023-05-16T13:17:06;12.05;;;10.75;;
21827;SDS011;11076;47.942;11.804;2023-05-16T13:22:09;11.52;;;10.40;;
21827;SDS011;11076;47.942;11.804;2023-05-16T13:27:14;10.40;;;8.68;;
21827;SDS011;11076;47.942;11.804;2023-05-16T13:32:17;10.43;;;8.73;;
21827;SDS011;11076;47.942;11.804;2023-05-16T13:37:20;9.18;;;7.97;;
21827;SDS011;11076;47.942;11.804;2023-05-16T13:42:25;7.78;;;7.07;;
21827;SDS011;11076;47.942;11.804;2023-05-16T13:47:27;12.13;;;7.85;;
21827;SDS011;11076;47.942;11.804;2023-05-16T13:52:30;7.22;;;6.57;;
21827;SDS011;11076;47.942;11.804;2023-05-16T13:57:33;8.93;;;7.95;;
21827;SDS011;11076;47.942;11.804;2023-05-16T14:02:35;9.55;;;8.32;;
21827;SDS011;11076;47.942;11.804;2023-05-16T14:07:38;12.10;;;9.45;;
21827;SDS011;11076;47.942;11.804;2023-05-16T14:12:40;13.30;;;11.15;;
21827;SDS011;11076;47.942;11.804;2023-05-16T14:17:43;13.27;;;11.82;;
21827;SDS011;11076;47.942;11.804;2023-05-16T14:22:45;14.50;;;13.00;;
21827;SDS011;11076;47.942;11.804;2023-05-16T14:27:47;16.63;;;14.82;;
21827;SDS011;11076;47.942;11.804;2023-05-16T14:32:51;16.77;;;12.88;;
21827;SDS011;11076;47.942;11.804;2023-05-16T14:37:54;5.70;;;5.10;;
21827;SDS011;11076;47.942;11.804;2023-05-16T14:42:56;11.07;;;6.90;;
21827;SDS011;11076;47.942;11.804;2023-05-16T14:47:59;7.28;;;5.20;;
21827;SDS011;11076;47.942;11.804;2023-05-16T14:53:01;12.98;;;5.10;;
21827;SDS011;11076;47.942;11.804;2023-05-16T14:58:04;6.35;;;4.78;;
21827;SDS011;11076;47.942;11.804;2023-05-16T15:03:07;5.82;;;4.15;;
21827;SDS011;11076;47.942;11.804;2023-05-16T15:08:09;4.40;;;3.45;;
21827;SDS011;11076;47.942;11.804;2023-05-16T15:13:11;6.22;;;5.40;;
21827;SDS011;11076;47.942;11.804;2023-05-16T15:18:14;5.82;;;5.03;;
21827;SDS011;11076;47.942;11.804;2023-05-16T15:23:16;5.30;;;4.70;;
21827;SDS011;11076;47.942;11.804;2023-05-16T15:28:19;5.65;;;4.80;;
21827;SDS011;11076;47.942;11.804;2023-05-16T15:33:23;5.75;;;4.35;;
21827;SDS011;11076;47.942;11.804;2023-05-16T15:38:25;4.30;;;3.45;;
21827;SDS011;11076;47.942;11.804;2023-05-16T15:43:28;2.00;;;1.88;;
21827;SDS011;11076;47.942;11.804;2023-05-16T15:48:30;7.07;;;5.45;;
21827;SDS011;11076;47.942;11.804;2023-05-16T15:53:32;4.63;;;3.95;;
21827;SDS011;11076;47.942;11.804;2023-05-16T15:58:35;9.18;;;6.18;;
21827;SDS011;11076;47.942;11.804;2023-05-16T16:03:38;6.72;;;5.75;;
21827;SDS011;11076;47.942;11.804;2023-05-16T16:08:40;6.55;;;5.85;;
21827;SDS011;11076;47.942;11.804;2023-05-16T16:13:43;7.97;;;6.47;;
21827;SDS011;11076;47.942;11.804;2023-05-16T16:18:45;10.00;;;6.38;;
21827;SDS011;11076;47.942;11.804;2023-05-16T16:23:47;8.93;;;6.75;;
21827;SDS011;11076;47.942;11.804;2023-05-16T16:28:50;9.57;;;7.78;;
21827;SDS011;11076;47.942;11.804;2023-05-16T16:33:52;10.48;;;7.22;;
21827;SDS011;11076;47.942;11.804;2023-05-16T16:38:55;8.35;;;7.53;;
21827;SDS011;11076;47.942;11.804;2023-05-16T16:43:59;7.80;;;6.88;;
21827;SDS011;11076;47.942;11.804;2023-05-16T16:49:01;11.73;;;9.27;;
21827;SDS011;11076;47.942;11.804;2023-05-16T16:54:04;9.68;;;8.10;;
21827;SDS011;11076;47.942;11.804;2023-05-16T16:59:06;7.95;;;6.82;;
21827;SDS011;11076;47.942;11.804;2023-05-16T17:04:09;6.10;;;5.47;;
21827;SDS011;11076;47.942;11.804;2023-05-16T17:09:11;9.65;;;8.00;;
21827;SDS011;11076;47.942;11.804;2023-05-16T17:14:15;8.15;;;7.35;;
21827;SDS011;11076;47.942;11.804;2023-05-16T17:19:17;9.63;;;8.60;;
21827;SDS011;11076;47.942;11.804;2023-05-16T17:24:20;9.80;;;8.80;;
21827;SDS011;11076;47.942;11.804;2023-05-16T17:29:22;11.13;;;9.40;;
21827;SDS011;11076;47.942;11.804;2023-05-16T17:34:25;12.05;;;8.82;;
21827;SDS011;11076;47.942;11.804;2023-05-16T17:39:27;10.73;;;9.63;;
21827;SDS011;11076;47.942;11.804;2023-05-16T17:44:30;11.73;;;9.38;;
21827;SDS011;11076;47.942;11.804;2023-05-16T17:49:32;11.98;;;9.90;;
21827;SDS011;11076;47.942;11.804;2023-05-16T17:54:35;13.30;;;10.18;;
21827;SDS011;11076;47.942;11.804;2023-05-16T17:59:38;15.65;;;11.35;;
21827;SDS011;11076;47.942;11.804;2023-05-16T18:04:41;16.10;;;13.65;;
21827;SDS011;11076;47.942;11.804;2023-05-16T18:09:43;19.98;;;16.60;;
21827;SDS011;11076;47.942;11.804;2023-05-16T18:14:46;17.00;;;14.20;;
21827;SDS011;11076;47.942;11.804;2023-05-16T18:19:48;17.67;;;13.98;;
21827;SDS011;11076;47.942;11.804;2023-05-16T18:24:51;16.85;;;12.65;;
21827;SDS011;11076;47.942;11.804;2023-05-16T18:29:53;13.50;;;11.63;;
21827;SDS011;11076;47.942;11.804;2023-05-16T18:34:55;10.70;;;8.85;;
21827;SDS011;11076;47.942;11.804;2023-05-16T18:39:58;10.57;;;7.40;;
21827;SDS011;11076;47.942;11.804;2023-05-16T18:45:00;16.60;;;11.93;;
21827;SDS011;11076;47.942;11.804;2023-05-16T18:50:03;14.55;;;11.98;;
21827;SDS011;11076;47.942;11.804;2023-05-16T18:55:06;17.08;;;10.93;;
21827;SDS011;11076;47.942;11.804;2023-05-16T19:00:09;13.70;;;10.18;;
21827;SDS011;11076;47.942;11.804;2023-05-16T19:05:13;20.23;;;14.32;;
21827;SDS011;11076;47.942;11.804;2023-05-16T19:10:15;19.17;;;13.65;;
21827;SDS011;11076;47.942;11.804;2023-05-16T19:15:18;20.45;;;14.98;;
21827;SDS011;11076;47.942;11.804;2023-05-16T19:20:20;20.88;;;13.32;;
21827;SDS011;11076;47.942;11.804;2023-05-16T19:25:23;20.23;;;13.10;;
21827;SDS011;11076;47.942;11.804;2023-05-16T19:30:25;19.58;;;10.02;;
21827;SDS011;11076;47.942;11.804;2023-05-16T19:35:28;11.02;;;8.02;;
21827;SDS011;11076;47.942;11.804;2023-05-16T19:40:33;18.92;;;10.50;;
21827;SDS011;11076;47.942;11.804;2023-05-16T19:45:35;16.48;;;12.07;;
21827;SDS011;11076;47.942;11.804;2023-05-16T19:50:39;19.05;;;14.43;;
21827;SDS011;11076;47.942;11.804;2023-05-16T19:55:42;15.93;;;12.60;;
21827;SDS011;11076;47.942;11.804;2023-05-16T20:00:44;19.25;;;11.32;;
21827;SDS011;11076;47.942;11.804;2023-05-16T20:05:48;18.10;;;12.02;;
21827;SDS011;11076;47.942;11.804;2023-05-16T20:10:50;17.00;;;12.35;;
21827;SDS011;11076;47.942;11.804;2023-05-16T20:15:52;17.25;;;13.25;;
21827;SDS011;11076;47.942;11.804;2023-05-16T20:20:55;19.48;;;13.43;;
21827;SDS011;11076;47.942;11.804;2023-05-16T20:25:58;18.08;;;12.90;;
21827;SDS011;11076;47.942;11.804;2023-05-16T20:31:01;18.40;;;13.45;;
21827;SDS011;11076;47.942;11.804;2023-05-16T20:36:03;16.60;;;12.13;;
21827;SDS011;11076;47.942;11.804;2023-05-16T20:41:06;16.27;;;11.65;;
21827;SDS011;11076;47.942;11.804;2023-05-16T20:46:11;15.23;;;9.88;;
21827;SDS011;11076;47.942;11.804;2023-05-16T20:51:13;15.07;;;8.38;;
21827;SDS011;11076;47.942;11.804;2023-05-16T20:56:16;12.57;;;8.37;;
21827;SDS011;11076;47.942;11.804;2023-05-16T21:01:19;10.60;;;7.03;;
21827;SDS011;11076;47.942;11.804;2023-05-16T21:06:22;11.93;;;8.57;;
21827;SDS011;11076;47.942;11.804;2023-05-16T21:11:24;13.50;;;8.98;;
21827;SDS011;11076;47.942;11.804;2023-05-16T21:16:28;10.75;;;6.70;;
21827;SDS011;11076;47.942;11.804;2023-05-16T21:21:32;15.75;;;9.40;;
21827;SDS011;11076;47.942;11.804;2023-05-16T21:26:34;11.52;;;7.28;;
21827;SDS011;11076;47.942;11.804;2023-05-16T21:31:37;9.52;;;6.38;;
21827;SDS011;11076;47.942;11.804;2023-05-16T21:36:39;12.00;;;7.93;;
21827;SDS011;11076;47.942;11.804;2023-05-16T21:41:42;13.45;;;9.15;;
21827;SDS011;11076;47.942;11.804;2023-05-16T21:46:44;11.90;;;9.05;;
21827;SDS011;11076;47.942;11.804;2023-05-16T21:51:47;9.93;;;7.30;;
21827;SDS011;11076;47.942;11.804;2023-05-16T21:56:50;11.93;;;7.70;;
21827;SDS011;11076;47.942;11.804;2023-05-16T22:01:52;11.13;;;7.00;;
21827;SDS011;11076;47.942;11.804;2023-05-16T22:06:54;11.38;;;7.07;;
21827;SDS011;11076;47.942;11.804;2023-05-16T22:11:57;8.37;;;7.00;;
21827;SDS011;11076;47.942;11.804;2023-05-16T22:16:59;9.88;;;7.70;;
21827;SDS011;11076;47.942;11.804;2023-05-16T22:22:02;9.07;;;5.93;;
21827;SDS011;11076;47.942;11.804;2023-05-16T22:27:04;8.90;;;5.97;;
21827;SDS011;11076;47.942;11.804;2023-05-16T22:32:07;8.23;;;5.50;;
21827;SDS011;11076;47.942;11.804;2023-05-16T22:37:10;10.82;;;3.88;;
21827;SDS011;11076;47.942;11.804;2023-05-16T22:42:13;9.07;;;5.37;;
21827;SDS011;11076;47.942;11.804;2023-05-16T22:47:15;4.68;;;3.78;;
21827;SDS011;11076;47.942;11.804;2023-05-16T22:52:17;6.82;;;4.75;;
21827;SDS011;11076;47.942;11.804;2023-05-16T22:57:20;7.07;;;3.88;;
21827;SDS011;11076;47.942;11.804;2023-05-16T23:02:22;8.97;;;4.40;;
21827;SDS011;11076;47.942;11.804;2023-05-16T23:07:25;12.70;;;4.77;;
21827;SDS011;11076;47.942;11.804;2023-05-16T23:12:29;3.70;;;2.65;;
21827;SDS011;11076;47.942;11.804;2023-05-16T23:17:32;9.02;;;4.10;;
21827;SDS011;11076;47.942;11.804;2023-05-16T23:22:34;8.53;;;3.90;;
21827;SDS011;11076;47.942;11.804;2023-05-16T23:27:36;8.10;;;4.73;;
21827;SDS011;11076;47.942;11.804;2023-05-16T23:32:39;8.67;;;3.67;;
21827;SDS011;11076;47.942;11.804;2023-05-16T23:37:41;11.80;;;4.00;;
21827;SDS011;11076;47.942;11.804;2023-05-16T23:42:44;10.63;;;3.60;;
21827;SDS011;11076;47.942;11.804;2023-05-16T23:47:46;7.73;;;3.80;;
21827;SDS011;11076;47.942;11.804;2023-05-16T23:52:49;12.90;;;4.27;;
21827;SDS011;11076;47.942;11.804;2023-05-16T23:57:51;11.37;;;3.83;;
